Woodland Hills, CA

7:16 PM PDT on August 22, 2014 (GMT -0700)
Fallbrook Mall Area | Change Station
CLOSE
Current Station
Personal Weather Station
Location: Woodland Hills, CA
Elevation: 832 ft
Nearby Weather Stations

Elev 832 ft 34.18 °N, 118.62 °W | Updated 29 seconds ago

Smoke
Smoke
82.6 °F
Feels Like 81 °F
N
2.7
Wind Variable Wind from SW
Gusts 4.0 mph

Today
High -- | Low -- °F
--% Chance of Precip.
Yesterday
High -- | Low -- °F
Precip. -- in
6:20 AM 7:33 PM
Waning Crescent, 6% visible
Pressure 29.87 in
Visibility 10.0 miles
Clouds Clear
Heat Index 81 °F
Dew Point 52 °F
Humidity 35%
Rainfall 0.00 in
Snow Depth Not available.
UV 1 out of 12
Pollen 5.40 out of 12
Ozone Good
PM2.5 Good
Flu Activity Not available.
METAR KVNY 230051Z 14009KT 10SM FU CLR 30/10 A2990 RMK AO2 SLP115 T03000100

More Conditions Fewer Conditions

Pressure 29.87 in
Visibility 10.0 miles
Clouds Clear
Heat Index 81 °F
Dew Point 52 °F
Humidity 35%
Rainfall 0.00 in
Snow Depth Not available.
UV 1 out of 12
Pollen 5.40 out of 12
Ozone Good
PM2.5 Good
Flu Activity Not available.
METAR KVNY 230051Z 14009KT 10SM FU CLR 30/10 A2990 RMK AO2 SLP115 T03000100

More Conditions Fewer Conditions

10-Day Weather Forecast

Almanac

Astronomy

Aug. 22, 2014 Rise Set
Actual Time 6:20 AM PDT 7:33 PM PDT
Civil Twilight 5:54 AM PDT 7:59 PM PDT
Nautical Twilight 5:23 AM PDT 8:30 PM PDT
Astronomical Twilight 4:51 AM PDT 9:02 PM PDT
Moon 3:51 AM PDT (8/22) 5:42 PM PDT (8/22)
Length of Visible Light 14h 04m
Length of Day
13h 12m
Tomorrow will be 1m 58s shorter.
Waning Crescent, 6% of the Moon is Illuminated
Today
Waning Crescent
Aug 25
New
Sep 2
First Quarter
Sep 8
Full
Sep 15
Last Quarter

Today's Extremes

State Highs State Lows

Community

WunderPhotos

Upload Photos

1,746,346 photos uploaded!

WunderBlogs® & News

Nearby

Air Quality

  Air Quality AQ Index Pollutant
Yesterday Moderate
PM2.5
Yesterday Good
OZONE
Current Good
PM2.5
Current Good
OZONE
Saturday Good
OZONE
Saturday Good
PM10
Saturday Good
CO
Saturday Good
NO2

Snow Depth

Station Depth Elevation
Leavitt Meadows 1 in 7200 ft
Summit Meadow 1 in 9122 ft
Echo Peak 0 in 7800 ft
CSS Lab 4 in 6900 ft
Adin Mountain 1 in 6200 ft

Earthquake Activity

City Distance Mag. Time & Date
Big Bear City, California 102 miles 3.7 9:55 PM PDT
2014-08-17
Minimum magnitude displayed is 2.5.

Coastal Water Temperatures

Place Temperature
Santa Monica Pier 72.0 °F
Los Angeles, CA 69.1 °F
La Jolla, CA 73.0 °F

Nearby Weather Stations